Itaubal, Brazil
Current Conditions -  °F | °C
As of 2:25 AM on Thursday 23 Oct 2014 (Local Time) from SBMQ Reporting Station
Moderate Rain Moderate Rain  
Wind Chill: 79°   Ceiling: 1300
Heat Index: 83°   Visibility: 1.2mi
Dew Point: 77°   Wind: 12mph
Humidity: 94%   Direction: 100°E
Pressure: 29.85"   Gusts: NA
Location:  0.7°N, 50.77°W
Report Text: SBMQ 230525Z 10010KT 2000 RA BKN013 FEW020TCU SCT080 26/25 Q1011
Loading
Personal Weather Stations






























Interactive Weather Map
Tropical Storm Tracking
New forecast layout! Learn more

10-Day Weather Forecast

Advertisements
Track Severe Weather on mobile